Time;durP1;ratioP1;P1;durP2;ratioP2;P2;SDS_P1;SDS_P2;PMS_P1;PMS_P2;Temp;Humidity;BMP_temperature;BMP_pressure;BME280_temperature;BME280_humidity;BME280_pressure;Samples;Min_cycle;Max_cycle;Signal;HPM_P1;HPM_P2
2021/07/07 00:00:32;;;;;;;2.67;1.58;;;15.30;91.70;;;;;;5014568;28;20105;-84
2021/07/07 00:02:58;;;;;;;3.80;1.65;;;15.30;91.60;;;;;;5015167;28;20022;-84
2021/07/07 00:05:24;;;;;;;5.95;1.92;;;15.30;91.70;;;;;;5015735;28;20021;-83
2021/07/07 00:07:49;;;;;;;4.93;2.88;;;15.30;91.70;;;;;;5026499;28;20033;-83
2021/07/07 00:10:19;;;;;;;4.68;2.90;;;15.30;91.70;;;;;;5018423;28;20121;-85
2021/07/07 00:12:48;;;;;;;5.95;2.88;;;15.30;91.70;;;;;;5015622;28;20084;-84
2021/07/07 00:15:20;;;;;;;16.40;4.30;;;15.30;91.60;;;;;;4987609;28;20181;-83
2021/07/07 00:17:47;;;;;;;65.28;6.55;;;15.30;91.60;;;;;;5021903;28;20030;-84
2021/07/07 00:20:14;;;;;;;46.33;6.57;;;15.30;91.70;;;;;;5030939;28;20100;-83
2021/07/07 00:22:40;;;;;;;34.95;6.22;;;15.30;91.70;;;;;;4998662;28;20093;-83
2021/07/07 00:25:07;;;;;;;11.13;5.55;;;15.20;91.50;;;;;;4998344;28;20030;-83
2021/07/07 00:27:33;;;;;;;45.75;6.78;;;15.20;91.50;;;;;;5019634;28;20125;-83
2021/07/07 00:29:59;;;;;;;51.65;6.43;;;15.20;91.50;;;;;;5015509;28;20406;-83
2021/07/07 00:32:25;;;;;;;124.93;8.75;;;15.20;91.30;;;;;;4997305;28;20426;-83
2021/07/07 00:34:51;;;;;;;85.13;7.28;;;15.20;91.60;;;;;;4998376;28;20029;-83
2021/07/07 00:37:17;;;;;;;62.17;7.78;;;15.20;91.40;;;;;;5015779;28;20088;-83
2021/07/07 00:39:43;;;;;;;90.25;7.90;;;15.20;91.30;;;;;;5015535;28;20026;-83
2021/07/07 00:42:09;;;;;;;67.45;10.55;;;15.20;91.40;;;;;;5015690;28;20136;-83
2021/07/07 00:44:38;;;;;;;47.75;7.45;;;15.20;91.40;;;;;;5017153;28;20026;-82
2021/07/07 00:47:07;;;;;;;35.50;6.93;;;15.20;91.40;;;;;;5016631;28;20017;-82
2021/07/07 00:49:33;;;;;;;31.52;7.15;;;15.10;91.40;;;;;;5019160;28;20033;-82
2021/07/07 00:51:59;;;;;;;105.57;10.55;;;15.10;91.40;;;;;;5019566;28;20038;-82
2021/07/07 00:54:26;;;;;;;38.47;8.45;;;15.10;91.40;;;;;;5020705;28;20028;-82
2021/07/07 00:56:53;;;;;;;21.08;7.93;;;15.10;91.40;;;;;;5001860;28;20025;-82
2021/07/07 00:59:20;;;;;;;11.55;8.23;;;15.10;91.20;;;;;;5012396;28;20118;-82
2021/07/07 01:01:46;;;;;;;11.50;7.13;;;15.20;91.20;;;;;;5029663;28;20112;-81
2021/07/07 01:04:12;;;;;;;9.65;6.90;;;15.10;91.30;;;;;;5027467;28;20365;-82
2021/07/07 01:06:40;;;;;;;8.30;5.80;;;15.20;91.20;;;;;;5018884;28;20422;-81
2021/07/07 01:09:06;;;;;;;9.85;6.03;;;15.10;91.40;;;;;;5018481;28;20025;-81
2021/07/07 01:11:35;;;;;;;9.05;6.07;;;15.10;91.30;;;;;;5001833;28;20481;-82
2021/07/07 01:14:01;;;;;;;10.00;6.65;;;15.10;91.30;;;;;;5021340;28;20029;-81
2021/07/07 01:16:27;;;;;;;11.23;6.65;;;15.10;91.20;;;;;;5017813;28;20097;-82
2021/07/07 01:18:53;;;;;;;8.65;5.43;;;15.10;91.30;;;;;;5020314;28;20029;-81
2021/07/07 01:21:20;;;;;;;11.27;7.18;;;15.10;91.30;;;;;;5018837;28;20056;-81
2021/07/07 01:23:46;;;;;;;12.07;7.57;;;15.10;91.30;;;;;;5018789;28;20029;-82
2021/07/07 01:26:12;;;;;;;11.15;6.70;;;15.00;91.30;;;;;;5022223;28;20034;-82
2021/07/07 01:28:37;;;;;;;11.32;7.55;;;15.00;91.20;;;;;;5018693;28;20045;-81
2021/07/07 01:31:06;;;;;;;8.80;5.85;;;15.00;91.10;;;;;;5018198;28;20038;-82
2021/07/07 01:33:32;;;;;;;14.55;7.47;;;15.10;91.10;;;;;;5018307;28;20319;-82
2021/07/07 01:35:58;;;;;;;11.18;7.18;;;15.10;91.10;;;;;;5018650;28;20022;-82
2021/07/07 01:38:24;;;;;;;10.90;6.53;;;15.10;91.10;;;;;;5018341;28;20033;-82
2021/07/07 01:40:50;;;;;;;9.55;5.80;;;15.10;91.10;;;;;;5017528;28;20040;-82
2021/07/07 01:43:16;;;;;;;9.95;5.95;;;15.10;91.20;;;;;;5018771;28;20385;-82
2021/07/07 01:45:41;;;;;;;8.85;6.28;;;15.10;91.10;;;;;;5030425;28;20113;-82
2021/07/07 01:48:07;;;;;;;12.95;7.18;;;15.10;91.10;;;;;;5024816;28;20026;-83
2021/07/07 01:50:33;;;;;;;11.35;7.28;;;15.10;91.20;;;;;;5019906;28;20034;-82
2021/07/07 01:52:58;;;;;;;10.63;7.38;;;15.10;91.10;;;;;;5018071;28;20026;-82
2021/07/07 01:55:27;;;;;;;9.85;6.28;;;15.20;91.10;;;;;;5018252;28;20030;-83
2021/07/07 01:57:53;;;;;;;10.00;6.70;;;15.20;91.20;;;;;;5020143;28;20022;-82
2021/07/07 02:00:25;;;;;;;12.48;7.53;;;15.20;91.20;;;;;;5017487;28;20021;-82
2021/07/07 02:02:53;;;;;;;9.23;5.80;;;15.10;91.30;;;;;;5017999;28;20034;-83
2021/07/07 02:05:25;;;;;;;10.15;6.03;;;15.10;91.40;;;;;;5010102;28;20208;-82
2021/07/07 02:07:51;;;;;;;7.88;6.20;;;15.10;91.30;;;;;;5024881;28;20361;-82
2021/07/07 02:10:18;;;;;;;10.82;6.07;;;15.10;91.30;;;;;;5017439;28;20422;-82
2021/07/07 02:12:44;;;;;;;9.18;5.80;;;15.10;91.30;;;;;;5000979;28;20088;-81
2021/07/07 02:15:17;;;;;;;9.93;5.93;;;15.10;91.30;;;;;;5016449;28;20061;-81
2021/07/07 02:17:44;;;;;;;10.25;6.13;;;15.10;91.10;;;;;;5028039;28;20117;-81
2021/07/07 02:20:11;;;;;;;10.00;6.88;;;15.10;91.30;;;;;;5009012;28;20334;-81
2021/07/07 02:22:38;;;;;;;8.45;5.50;;;15.10;91.40;;;;;;5005355;28;20037;-81
2021/07/07 02:25:10;;;;;;;11.45;6.25;;;15.10;91.20;;;;;;5000112;28;20062;-82
2021/07/07 02:27:35;;;;;;;9.93;6.15;;;15.10;91.40;;;;;;5017371;28;20037;-81
2021/07/07 02:30:03;;;;;;;11.27;6.90;;;15.10;91.50;;;;;;5000582;28;20339;-81
2021/07/07 02:32:29;;;;;;;8.70;5.35;;;15.00;91.50;;;;;;5016423;28;20022;-81
2021/07/07 02:34:54;;;;;;;7.78;5.20;;;15.00;91.30;;;;;;5018539;28;20033;-82
2021/07/07 02:37:20;;;;;;;8.80;5.40;;;15.00;91.50;;;;;;5011089;28;20022;-81
2021/07/07 02:39:45;;;;;;;9.02;4.65;;;15.00;91.20;;;;;;5016899;28;20044;-82
2021/07/07 02:42:11;;;;;;;8.82;5.32;;;15.00;91.30;;;;;;5016963;28;20034;-82
2021/07/07 02:44:37;;;;;;;10.30;5.80;;;15.00;91.40;;;;;;5014550;28;20032;-81
2021/07/07 02:47:03;;;;;;;12.25;6.35;;;15.00;91.40;;;;;;5020765;28;20030;-82
2021/07/07 02:49:31;;;;;;;11.82;6.70;;;15.00;91.30;;;;;;5030418;28;20322;-81
2021/07/07 02:51:57;;;;;;;10.77;6.70;;;15.00;91.40;;;;;;4999339;28;20033;-81
2021/07/07 02:54:22;;;;;;;13.70;7.30;;;15.00;91.30;;;;;;5016362;28;20418;-81
2021/07/07 02:56:48;;;;;;;9.98;6.30;;;15.00;91.40;;;;;;5017108;28;20606;-81
2021/07/07 02:59:14;;;;;;;13.35;6.30;;;15.00;91.40;;;;;;5003947;28;20026;-81
2021/07/07 03:01:39;;;;;;;12.07;7.13;;;15.00;91.30;;;;;;4999631;28;20064;-81
2021/07/07 03:04:05;;;;;;;16.92;9.57;;;15.00;91.40;;;;;;5030739;28;20108;-84
2021/07/07 03:06:31;;;;;;;17.15;9.65;;;15.00;91.50;;;;;;5020016;28;20037;-85
2021/07/07 03:09:00;;;;;;;17.90;9.73;;;15.00;91.50;;;;;;5029374;28;20334;-81
2021/07/07 03:11:26;;;;;;;19.15;10.27;;;15.00;91.40;;;;;;5001144;28;20445;-81
2021/07/07 03:13:51;;;;;;;14.13;9.15;;;15.00;91.50;;;;;;5012845;28;20027;-82
2021/07/07 03:16:20;;;;;;;16.33;9.85;;;15.00;91.40;;;;;;4997162;28;20418;-79
2021/07/07 03:18:46;;;;;;;15.10;9.85;;;15.00;91.50;;;;;;5026445;28;20013;-82
2021/07/07 03:21:12;;;;;;;14.90;8.55;;;14.90;91.40;;;;;;4999313;28;20354;-82
2021/07/07 03:23:37;;;;;;;14.45;9.95;;;14.90;91.40;;;;;;5007322;28;20033;-82
2021/07/07 03:26:03;;;;;;;14.25;8.32;;;14.90;91.50;;;;;;5007072;28;20431;-81
2021/07/07 03:28:29;;;;;;;11.20;7.10;;;14.90;91.30;;;;;;5001423;28;20026;-82
2021/07/07 03:30:55;;;;;;;10.23;6.32;;;14.90;91.40;;;;;;4993334;28;20027;-83
2021/07/07 03:33:21;;;;;;;8.23;5.40;;;14.90;91.30;;;;;;5003300;28;20320;-81
2021/07/07 03:35:47;;;;;;;8.10;3.80;;;14.90;91.30;;;;;;5010522;28;20117;-82
2021/07/07 03:38:13;;;;;;;9.88;6.13;;;14.90;91.20;;;;;;4996461;28;20027;-82
2021/07/07 03:40:40;;;;;;;10.43;6.78;;;15.00;91.20;;;;;;4996407;28;20026;-82
2021/07/07 03:43:07;;;;;;;14.82;7.07;;;15.00;91.40;;;;;;4994571;28;20027;-82
2021/07/07 03:45:33;;;;;;;12.80;7.78;;;15.00;91.40;;;;;;4994853;28;20038;-80
2021/07/07 03:48:02;;;;;;;12.48;7.65;;;15.00;91.30;;;;;;4995042;28;20022;-83
2021/07/07 03:50:27;;;;;;;17.92;9.57;;;14.90;91.50;;;;;;4993780;28;20027;-81
2021/07/07 03:52:54;;;;;;;14.10;8.77;;;14.90;91.40;;;;;;4999788;28;20035;-82
2021/07/07 03:55:22;;;;;;;15.60;8.63;;;14.90;91.40;;;;;;4994035;28;20415;-82
2021/07/07 03:57:48;;;;;;;15.60;9.55;;;14.90;91.30;;;;;;4996054;28;20064;-81
2021/07/07 04:00:20;;;;;;;12.02;8.40;;;14.90;91.60;;;;;;5005628;28;20025;-81
2021/07/07 04:02:45;;;;;;;12.63;7.20;;;14.90;91.10;;;;;;4993915;28;20411;-82
2021/07/07 04:05:12;;;;;;;11.93;6.65;;;14.90;91.50;;;;;;4994802;28;20054;-82
2021/07/07 04:07:38;;;;;;;10.18;6.40;;;14.90;91.40;;;;;;4993951;28;20107;-82
2021/07/07 04:10:06;;;;;;;11.20;6.38;;;14.90;91.20;;;;;;5002997;28;20034;-83
2021/07/07 04:12:32;;;;;;;11.90;7.47;;;15.00;91.30;;;;;;5009734;28;20025;-83
2021/07/07 04:14:57;;;;;;;11.02;7.20;;;14.90;91.40;;;;;;4995491;28;20041;-82
2021/07/07 04:17:23;;;;;;;8.68;6.20;;;14.90;91.40;;;;;;5000607;28;20029;-82
2021/07/07 04:19:48;;;;;;;11.68;7.18;;;14.90;91.20;;;;;;5007142;28;20034;-82
2021/07/07 04:22:14;;;;;;;10.60;6.82;;;14.90;91.30;;;;;;5014398;28;20050;-83
2021/07/07 04:24:40;;;;;;;11.20;6.60;;;14.90;91.10;;;;;;5017914;28;20029;-82
2021/07/07 04:27:05;;;;;;;10.50;6.88;;;15.00;91.00;;;;;;5022659;28;20026;-82
2021/07/07 04:29:31;;;;;;;8.95;6.28;;;15.00;91.40;;;;;;5021563;28;20445;-82
2021/07/07 04:31:57;;;;;;;9.90;5.65;;;15.00;91.20;;;;;;5010000;28;20038;-83
2021/07/07 04:34:26;;;;;;;7.43;4.82;;;15.00;91.20;;;;;;5014778;28;20022;-82
2021/07/07 04:36:52;;;;;;;6.95;4.90;;;15.00;91.30;;;;;;4999286;28;20465;-82
2021/07/07 04:39:18;;;;;;;7.38;5.10;;;14.90;91.40;;;;;;5017815;28;20318;-82
2021/07/07 04:41:43;;;;;;;8.73;5.63;;;14.90;92.00;;;;;;4999971;28;20021;-81
2021/07/07 04:44:09;;;;;;;9.77;5.32;;;14.80;92.10;;;;;;5016121;28;20117;-83
2021/07/07 04:46:34;;;;;;;7.00;4.85;;;14.70;92.20;;;;;;4999772;28;20090;-82
2021/07/07 04:49:00;;;;;;;6.65;4.20;;;14.60;92.20;;;;;;5017807;28;20030;-82
2021/07/07 04:51:26;;;;;;;6.88;3.92;;;14.60;92.10;;;;;;5017206;28;20449;-83
2021/07/07 04:53:52;;;;;;;7.65;3.53;;;14.60;92.40;;;;;;4999257;28;20022;-86
2021/07/07 04:56:18;;;;;;;5.78;3.67;;;14.60;92.60;;;;;;5017788;28;20113;-86
2021/07/07 04:58:43;;;;;;;7.68;4.28;;;14.40;92.60;;;;;;4998345;28;20030;-83
2021/07/07 05:01:09;;;;;;;6.50;3.22;;;14.40;92.60;;;;;;5014921;28;20021;-82
2021/07/07 05:03:35;;;;;;;5.00;2.80;;;14.40;92.00;;;;;;5017824;28;20300;-81
2021/07/07 05:06:01;;;;;;;4.55;2.88;;;14.40;92.50;;;;;;5019301;28;20033;-82
2021/07/07 05:08:27;;;;;;;6.05;3.17;;;14.40;93.00;;;;;;5001992;28;20022;-82
2021/07/07 05:10:52;;;;;;;6.47;3.72;;;14.30;92.60;;;;;;5025311;28;20029;-80
2021/07/07 05:13:19;;;;;;;8.07;4.03;;;14.30;92.90;;;;;;5027379;28;20025;-80
2021/07/07 05:15:47;;;;;;;7.30;4.43;;;14.30;93.00;;;;;;5016538;28;20017;-82
2021/07/07 05:18:13;;;;;;;7.78;4.15;;;14.30;93.10;;;;;;5017760;28;20054;-84
2021/07/07 05:20:38;;;;;;;5.65;3.00;;;14.30;92.70;;;;;;5004146;28;20482;-82
2021/07/07 05:23:07;;;;;;;5.38;2.80;;;14.30;92.50;;;;;;5015161;28;20040;-81
2021/07/07 05:25:38;;;;;;;4.25;2.20;;;14.40;92.50;;;;;;5012592;28;20343;-81
2021/07/07 05:28:05;;;;;;;5.70;2.33;;;14.40;92.40;;;;;;5017488;28;20014;-81
2021/07/07 05:30:31;;;;;;;4.07;2.25;;;14.40;92.60;;;;;;5016446;28;20083;-82
2021/07/07 05:33:00;;;;;;;3.95;2.40;;;14.40;92.70;;;;;;5015688;28;20031;-81
2021/07/07 05:35:26;;;;;;;5.68;2.28;;;14.30;93.10;;;;;;5017169;28;20105;-81
2021/07/07 05:37:52;;;;;;;3.08;1.90;;;14.30;93.10;;;;;;4999979;28;20122;-81
2021/07/07 05:40:19;;;;;;;5.47;2.75;;;14.30;92.70;;;;;;5000202;28;20029;-80
2021/07/07 05:42:49;;;;;;;6.90;2.90;;;14.30;92.90;;;;;;5017160;28;20026;-80
2021/07/07 05:45:15;;;;;;;5.40;2.90;;;14.40;92.60;;;;;;5016421;28;20109;-81
2021/07/07 05:47:41;;;;;;;6.30;3.50;;;14.40;92.70;;;;;;4999965;28;20045;-81
2021/07/07 05:50:07;;;;;;;5.35;2.65;;;14.40;93.10;;;;;;5000061;28;20530;-80
2021/07/07 05:52:33;;;;;;;5.40;3.20;;;14.40;92.80;;;;;;5017056;28;20036;-83
2021/07/07 05:54:58;;;;;;;7.93;2.72;;;14.40;93.10;;;;;;5017223;28;20025;-82
2021/07/07 05:57:36;;;;;;;5.28;2.97;;;14.30;92.90;;;;;;5017261;28;20025;-81
2021/07/07 06:00:07;;;;;;;5.68;2.75;;;14.30;92.90;;;;;;5016054;28;20022;-83
2021/07/07 06:02:33;;;;;;;4.18;2.40;;;14.30;92.70;;;;;;4999999;28;20322;-80
2021/07/07 06:04:59;;;;;;;4.35;2.22;;;14.40;92.30;;;;;;5016845;28;20034;-82
2021/07/07 06:07:25;;;;;;;4.03;2.10;;;14.50;92.70;;;;;;5016776;28;20418;-82
2021/07/07 06:09:50;;;;;;;3.63;1.88;;;14.50;92.40;;;;;;5016635;28;20032;-82
2021/07/07 06:12:16;;;;;;;3.88;1.55;;;14.60;92.70;;;;;;5016955;28;20036;-82
2021/07/07 06:14:42;;;;;;;3.40;1.45;;;14.60;92.90;;;;;;4998807;28;20025;-81
2021/07/07 06:17:07;;;;;;;2.47;1.17;;;14.60;93.00;;;;;;5015784;28;20030;-82
2021/07/07 06:19:33;;;;;;;2.67;1.33;;;14.70;92.80;;;;;;5016871;28;20068;-82
2021/07/07 06:22:00;;;;;;;2.55;1.30;;;14.80;92.70;;;;;;5016337;28;20054;-81
2021/07/07 06:24:27;;;;;;;2.38;1.10;;;15.00;92.70;;;;;;5016121;28;20084;-81
2021/07/07 06:26:53;;;;;;;2.42;1.30;;;15.10;94.90;;;;;;5016458;28;20029;-81
2021/07/07 06:29:19;;;;;;;3.70;1.95;;;15.10;95.60;;;;;;5016830;28;20315;-81
2021/07/07 06:31:45;;;;;;;3.70;1.80;;;15.00;95.40;;;;;;5015150;28;20026;-81
2021/07/07 06:34:11;;;;;;;3.72;2.00;;;15.00;95.40;;;;;;5016652;28;20028;-81
2021/07/07 06:36:38;;;;;;;3.42;1.80;;;14.90;96.10;;;;;;4999109;28;20022;-81
2021/07/07 06:39:05;;;;;;;3.38;1.40;;;14.90;95.70;;;;;;5015764;28;20028;-81
2021/07/07 06:41:31;;;;;;;3.10;1.60;;;15.00;95.20;;;;;;5016448;28;20411;-81
2021/07/07 06:43:57;;;;;;;2.33;1.00;;;15.10;95.60;;;;;;4998351;28;20037;-81
2021/07/07 06:46:23;;;;;;;2.33;1.25;;;15.30;95.10;;;;;;5015509;28;20434;-81
2021/07/07 06:48:49;;;;;;;3.58;1.90;;;15.30;97.20;;;;;;5015906;28;20040;-80
2021/07/07 06:51:14;;;;;;;3.60;1.58;;;15.20;96.90;;;;;;5016269;28;20053;-81
2021/07/07 06:53:40;;;;;;;4.03;1.95;;;15.10;97.20;;;;;;4998590;28;20326;-81
2021/07/07 06:56:05;;;;;;;4.43;2.22;;;15.00;97.50;;;;;;5005997;28;20322;-81
2021/07/07 06:58:31;;;;;;;7.13;2.92;;;14.90;96.80;;;;;;5015528;28;20111;-81
2021/07/07 07:00:57;;;;;;;3.05;1.67;;;14.90;96.60;;;;;;4997082;28;20032;-81
2021/07/07 07:03:22;;;;;;;3.05;1.40;;;14.80;96.30;;;;;;5016136;28;20029;-80
2021/07/07 07:05:48;;;;;;;3.30;1.38;;;14.90;96.10;;;;;;5015578;28;20026;-80
2021/07/07 07:08:16;;;;;;;2.47;1.15;;;14.90;95.80;;;;;;5015880;28;20433;-80
2021/07/07 07:10:42;;;;;;;3.00;1.60;;;15.00;95.90;;;;;;5015637;28;20143;-80
2021/07/07 07:13:07;;;;;;;3.00;1.45;;;15.00;95.60;;;;;;4998437;28;20029;-80
2021/07/07 07:15:36;;;;;;;3.38;1.42;;;15.20;95.70;;;;;;5014820;28;20054;-80
2021/07/07 07:18:02;;;;;;;2.72;1.27;;;15.30;95.40;;;;;;5015100;28;20026;-80
2021/07/07 07:20:29;;;;;;;2.50;1.10;;;15.40;95.50;;;;;;5015771;28;20022;-79
2021/07/07 07:22:57;;;;;;;1.02;0.75;;;15.50;96.40;;;;;;4997990;28;20060;-80
2021/07/07 07:25:23;;;;;;;2.35;1.00;;;15.40;97.10;;;;;;5015484;28;20050;-80
2021/07/07 07:27:48;;;;;;;1.80;1.00;;;15.40;97.40;;;;;;4997912;28;20061;-79
2021/07/07 07:30:15;;;;;;;1.60;0.90;;;15.50;97.70;;;;;;4997003;28;20030;-80
2021/07/07 07:32:41;;;;;;;1.70;1.00;;;15.40;97.50;;;;;;5015352;28;20068;-79
2021/07/07 07:35:07;;;;;;;4.20;1.58;;;15.60;97.80;;;;;;5015619;28;20049;-80
2021/07/07 07:37:42;;;;;;;2.83;1.73;;;15.60;97.60;;;;;;4998037;28;20022;-80
2021/07/07 07:40:12;;;;;;;2.25;1.20;;;15.70;97.80;;;;;;5015227;28;20342;-80
2021/07/07 07:42:46;;;;;;;4.22;2.17;;;15.60;98.00;;;;;;4998292;28;20026;-79
2021/07/07 07:45:13;;;;;;;3.22;1.63;;;15.50;97.80;;;;;;5014196;28;20029;-79
2021/07/07 07:47:43;;;;;;;4.47;1.27;;;15.40;98.00;;;;;;5015235;28;20068;-79
2021/07/07 07:50:11;;;;;;;3.63;1.40;;;15.30;98.00;;;;;;5015030;28;20075;-79
2021/07/07 07:52:39;;;;;;;3.08;1.60;;;15.30;98.00;;;;;;4997745;28;20049;-79
2021/07/07 07:55:05;;;;;;;3.17;1.45;;;15.20;98.00;;;;;;5014629;28;20026;-79
2021/07/07 07:57:36;;;;;;;4.57;1.90;;;15.30;98.00;;;;;;5013388;28;20062;-79
2021/07/07 08:00:11;;;;;;;3.45;1.67;;;15.40;98.00;;;;;;5013456;28;20415;-79
2021/07/07 08:02:36;;;;;;;2.97;1.27;;;15.50;98.00;;;;;;4997916;28;20058;-80
2021/07/07 08:05:03;;;;;;;2.38;1.02;;;15.50;98.00;;;;;;4997445;28;20314;-79
2021/07/07 08:07:29;;;;;;;2.63;1.13;;;15.50;98.00;;;;;;4997754;28;20022;-79
2021/07/07 08:09:55;;;;;;;2.88;1.30;;;15.50;98.00;;;;;;5014774;28;20033;-79
2021/07/07 08:12:21;;;;;;;3.25;1.40;;;15.40;98.00;;;;;;5014975;28;20398;-79
2021/07/07 08:14:50;;;;;;;2.95;1.48;;;15.40;98.00;;;;;;4997384;28;20057;-79
2021/07/07 08:17:19;;;;;;;2.92;1.40;;;15.40;97.80;;;;;;5013947;28;20013;-80
2021/07/07 08:19:45;;;;;;;3.03;1.70;;;15.40;97.30;;;;;;4997016;28;20339;-79
2021/07/07 08:22:11;;;;;;;4.03;1.92;;;15.40;97.40;;;;;;5014932;28;20050;-79
2021/07/07 08:24:37;;;;;;;5.18;1.83;;;15.40;97.20;;;;;;4997036;28;20029;-79
2021/07/07 08:27:03;;;;;;;5.22;2.10;;;15.40;97.10;;;;;;5013762;28;20030;-79
2021/07/07 08:29:29;;;;;;;4.75;2.30;;;15.40;97.20;;;;;;4997455;28;20087;-79
2021/07/07 08:31:54;;;;;;;8.35;2.15;;;15.40;97.00;;;;;;5013197;28;20441;-79
2021/07/07 08:34:20;;;;;;;5.88;2.00;;;15.40;96.70;;;;;;4997598;28;20026;-78
2021/07/07 08:36:46;;;;;;;3.15;1.88;;;15.40;97.20;;;;;;5014374;28;20026;-79
2021/07/07 08:39:12;;;;;;;4.53;2.35;;;15.40;97.30;;;;;;5014667;28;20044;-79
2021/07/07 08:41:38;;;;;;;3.30;1.75;;;15.40;96.80;;;;;;4996926;28;20030;-79
2021/07/07 08:44:06;;;;;;;3.65;1.80;;;15.60;96.50;;;;;;5014325;28;20040;-81
2021/07/07 08:46:36;;;;;;;2.45;1.58;;;15.80;97.50;;;;;;5013822;28;20048;-80
2021/07/07 08:49:02;;;;;;;7.55;1.85;;;15.80;98.00;;;;;;4996989;28;20422;-79
2021/07/07 08:51:28;;;;;;;2.97;1.58;;;15.80;97.80;;;;;;5014276;28;20074;-79
2021/07/07 08:53:54;;;;;;;3.28;1.73;;;15.90;98.00;;;;;;5014223;28;20097;-80
2021/07/07 08:56:20;;;;;;;3.65;1.90;;;15.80;98.00;;;;;;5014742;28;20361;-80
2021/07/07 08:58:45;;;;;;;3.55;1.88;;;15.80;98.00;;;;;;5014248;28;20030;-80
2021/07/07 09:01:14;;;;;;;3.40;1.73;;;15.90;97.90;;;;;;5002679;28;20449;-79
2021/07/07 09:03:45;;;;;;;3.40;1.70;;;16.10;98.00;;;;;;4997240;28;20382;-79
2021/07/07 09:06:12;;;;;;;5.55;2.20;;;16.20;98.00;;;;;;4997230;28;20034;-80
2021/07/07 09:08:44;;;;;;;3.22;1.55;;;16.30;98.00;;;;;;5000544;28;20014;-80
2021/07/07 09:11:22;;;;;;;2.58;1.38;;;16.20;98.00;;;;;;5018080;28;20038;-80
2021/07/07 09:14:08;;;;;;;3.90;2.00;;;16.20;98.00;;;;;;5017378;28;20040;-80
2021/07/07 09:16:59;;;;;;;3.80;2.03;;;16.30;98.00;;;;;;5011664;28;20291;-80
2021/07/07 09:19:26;;;;;;;2.90;1.48;;;16.30;98.00;;;;;;5017934;28;20020;-80
2021/07/07 09:22:06;;;;;;;3.50;1.60;;;16.20;98.00;;;;;;5017490;28;20410;-80
2021/07/07 09:24:33;;;;;;;3.60;1.83;;;16.50;98.00;;;;;;5017757;28;20022;-80
2021/07/07 09:26:59;;;;;;;3.15;1.70;;;16.90;98.00;;;;;;5000035;28;20029;-80
2021/07/07 09:29:51;;;;;;;3.67;1.77;;;17.00;98.00;;;;;;5018086;28;20024;-80
2021/07/07 09:32:29;;;;;;;4.43;1.73;;;16.90;98.00;;;;;;5016163;28;20030;-81
2021/07/07 09:34:59;;;;;;;2.92;1.40;;;17.20;98.00;;;;;;5017183;28;20076;-80
2021/07/07 09:37:37;;;;;;;3.83;1.50;;;17.50;98.00;;;;;;5000385;28;20029;-81
2021/07/07 09:40:09;;;;;;;2.45;1.30;;;18.00;98.00;;;;;;5017357;28;20026;-81
2021/07/07 09:42:37;;;;;;;3.63;1.45;;;18.20;98.00;;;;;;5017331;28;20022;-81
2021/07/07 09:45:05;;;;;;;3.22;1.80;;;18.60;97.80;;;;;;5012747;28;20036;-81
2021/07/07 09:47:31;;;;;;;2.85;1.50;;;18.60;96.90;;;;;;5017550;28;20049;-81
2021/07/07 09:49:58;;;;;;;3.70;1.90;;;18.70;97.00;;;;;;5016628;28;20061;-81
2021/07/07 09:52:30;;;;;;;3.17;1.60;;;18.90;97.10;;;;;;5017419;28;20033;-81
2021/07/07 09:54:57;;;;;;;3.40;1.75;;;19.30;97.10;;;;;;5015663;28;20113;-81
2021/07/07 09:57:23;;;;;;;3.55;1.70;;;19.60;96.10;;;;;;5017133;28;20018;-81
2021/07/07 09:59:49;;;;;;;3.92;1.90;;;19.60;96.00;;;;;;4999910;28;20390;-81
2021/07/07 10:02:15;;;;;;;3.15;1.60;;;19.50;95.50;;;;;;4998596;28;20450;-80
2021/07/07 10:04:43;;;;;;;2.70;1.40;;;19.20;96.20;;;;;;5016986;28;20037;-80
2021/07/07 10:07:11;;;;;;;4.97;3.28;;;18.60;96.50;;;;;;5017224;28;20018;-82
2021/07/07 10:09:39;;;;;;;3.47;1.95;;;18.30;97.10;;;;;;4999465;28;20117;-81
2021/07/07 10:12:06;;;;;;;4.43;2.20;;;18.00;97.30;;;;;;5016306;28;20018;-81
2021/07/07 10:14:32;;;;;;;3.83;2.05;;;18.00;97.80;;;;;;5017210;28;20037;-80
2021/07/07 10:16:58;;;;;;;3.95;2.10;;;18.00;97.80;;;;;;5015571;28;20439;-81
2021/07/07 10:19:25;;;;;;;3.53;1.60;;;17.80;97.70;;;;;;5015365;28;20350;-81
2021/07/07 10:21:50;;;;;;;6.13;3.67;;;17.50;97.80;;;;;;5015238;28;20046;-81
2021/07/07 10:24:18;;;;;;;8.52;3.28;;;17.20;98.00;;;;;;5016553;28;20300;-81
2021/07/07 10:26:45;;;;;;;6.10;3.00;;;16.90;98.00;;;;;;4998998;28;20033;-81
2021/07/07 10:29:13;;;;;;;5.07;2.67;;;16.70;98.00;;;;;;5016852;28;20030;-81
2021/07/07 10:31:51;;;;;;;5.03;2.67;;;16.70;98.00;;;;;;5015612;28;20018;-81
2021/07/07 10:34:20;;;;;;;5.70;2.35;;;16.70;98.00;;;;;;4999349;28;20437;-81
2021/07/07 10:36:46;;;;;;;4.68;1.75;;;16.40;98.00;;;;;;5016106;28;20058;-81
2021/07/07 10:39:14;;;;;;;3.50;1.80;;;16.50;98.00;;;;;;4999295;28;20030;-81
2021/07/07 10:41:46;;;;;;;4.22;1.70;;;16.80;98.00;;;;;;4998330;28;20030;-81
2021/07/07 10:44:40;;;;;;;4.20;1.90;;;16.90;98.00;;;;;;5006078;28;20038;-81
2021/07/07 10:47:10;;;;;;;4.60;1.80;;;16.80;97.60;;;;;;5002218;28;20030;-82
2021/07/07 10:49:36;;;;;;;3.33;1.73;;;16.50;98.00;;;;;;5016157;28;20025;-81
2021/07/07 10:52:02;;;;;;;2.95;1.42;;;16.70;98.00;;;;;;5015560;28;20079;-81
2021/07/07 10:54:32;;;;;;;4.60;1.80;;;17.10;98.00;;;;;;5016225;28;20029;-81
2021/07/07 10:57:02;;;;;;;7.30;1.80;;;17.40;96.90;;;;;;4997952;28;20022;-81
2021/07/07 10:59:28;;;;;;;3.60;1.70;;;17.70;97.20;;;;;;5016352;28;20030;-81
2021/07/07 11:02:25;;;;;;;3.67;1.90;;;18.00;96.80;;;;;;4997125;28;20022;-81
2021/07/07 11:04:51;;;;;;;3.55;1.70;;;18.20;96.40;;;;;;5015777;28;20113;-81
2021/07/07 11:07:32;;;;;;;3.65;1.80;;;18.20;96.50;;;;;;4998794;28;20419;-81
2021/07/07 11:10:00;;;;;;;3.45;1.67;;;18.00;96.30;;;;;;5008801;28;20038;-82
2021/07/07 11:12:35;;;;;;;3.75;1.80;;;18.00;96.80;;;;;;5015470;28;20426;-82
2021/07/07 11:15:07;;;;;;;2.95;1.63;;;18.20;96.20;;;;;;5014522;28;20418;-81
2021/07/07 11:17:44;;;;;;;6.22;2.30;;;18.30;96.00;;;;;;5015109;28;20025;-82
2021/07/07 11:20:14;;;;;;;4.13;1.58;;;18.50;96.20;;;;;;5006107;28;20106;-81
2021/07/07 11:22:43;;;;;;;3.83;1.73;;;18.60;96.00;;;;;;4999384;28;20045;-82
2021/07/07 11:25:14;;;;;;;4.50;1.90;;;18.70;95.50;;;;;;5014011;28;20145;-82
2021/07/07 11:27:40;;;;;;;5.20;2.20;;;18.70;96.40;;;;;;5009541;28;20032;-81
2021/07/07 11:30:09;;;;;;;4.97;2.50;;;18.60;95.20;;;;;;5015782;28;20049;-81
2021/07/07 11:32:37;;;;;;;4.05;2.10;;;18.50;95.80;;;;;;5014907;28;20500;-81
2021/07/07 11:35:06;;;;;;;4.97;2.15;;;18.20;96.10;;;;;;4996744;28;20445;-81
2021/07/07 11:37:34;;;;;;;4.47;2.45;;;18.50;96.60;;;;;;5014876;28;20116;-81
2021/07/07 11:40:05;;;;;;;5.32;3.08;;;18.70;96.40;;;;;;5010474;28;20105;-84
2021/07/07 11:42:30;;;;;;;6.03;3.15;;;18.80;95.90;;;;;;5007810;28;20037;-80
2021/07/07 11:44:56;;;;;;;6.35;2.95;;;18.70;95.50;;;;;;5032577;28;20033;-83
2021/07/07 11:47:35;;;;;;;8.43;3.60;;;18.40;96.40;;;;;;5016315;28;20032;-81
2021/07/07 11:50:03;;;;;;;6.35;3.10;;;18.10;96.70;;;;;;5020856;28;20029;-80
2021/07/07 11:52:30;;;;;;;7.55;3.70;;;18.10;97.40;;;;;;5015134;28;20327;-79
2021/07/07 11:54:56;;;;;;;6.53;3.90;;;18.30;97.60;;;;;;5014953;28;20113;-79
2021/07/07 11:57:22;;;;;;;8.45;3.85;;;18.50;97.60;;;;;;5014439;28;20505;-79
2021/07/07 11:59:54;;;;;;;6.60;4.00;;;18.50;97.40;;;;;;5014890;28;20108;-79
2021/07/07 12:02:22;;;;;;;6.93;4.50;;;18.20;97.40;;;;;;4995081;28;20046;-79
2021/07/07 12:04:48;;;;;;;7.03;4.35;;;18.10;97.80;;;;;;5013944;28;20121;-80
2021/07/07 12:07:18;;;;;;;8.05;4.85;;;18.30;98.00;;;;;;4997292;28;20514;-79
2021/07/07 12:09:44;;;;;;;8.18;5.18;;;18.50;98.00;;;;;;5014539;28;20033;-80
2021/07/07 12:12:10;;;;;;;6.20;3.90;;;18.70;98.00;;;;;;5020128;28;20034;-79
2021/07/07 12:14:38;;;;;;;7.72;3.78;;;19.00;98.00;;;;;;5014991;28;20100;-79
2021/07/07 12:17:05;;;;;;;6.85;4.65;;;19.00;97.40;;;;;;4995734;28;20048;-80
2021/07/07 12:19:32;;;;;;;9.38;5.90;;;19.20;97.60;;;;;;5015080;28;20411;-80
2021/07/07 12:22:06;;;;;;;6.72;4.15;;;19.90;97.60;;;;;;5014030;28;20046;-80
2021/07/07 12:24:36;;;;;;;;;;;20.70;95.40;;;;;;4996581;28;20034;-80
2021/07/07 12:27:14;;;;;;;5.80;3.65;;;21.10;95.20;;;;;;5012908;28;20453;-80
2021/07/07 12:29:42;;;;;;;4.25;2.45;;;21.70;94.20;;;;;;5014198;28;20117;-80
2021/07/07 12:32:12;;;;;;;4.20;2.50;;;21.80;93.60;;;;;;4995559;28;20022;-80
2021/07/07 12:34:43;;;;;;;4.35;2.35;;;22.10;92.90;;;;;;4996703;28;20053;-80
2021/07/07 12:37:14;;;;;;;3.60;2.28;;;22.10;91.60;;;;;;4997060;28;20385;-80
2021/07/07 12:39:42;;;;;;;5.57;2.63;;;22.00;92.30;;;;;;5013743;28;20065;-80
2021/07/07 12:42:11;;;;;;;5.75;2.05;;;21.80;91.80;;;;;;5014820;28;20029;-80
2021/07/07 12:44:39;;;;;;;3.65;1.55;;;21.50;92.50;;;;;;5018223;28;20014;-80
2021/07/07 12:47:13;;;;;;;4.13;1.60;;;21.10;92.50;;;;;;5017101;28;20041;-80